createdAt,value
2019-03-13T00:00:30.481Z,83.70
2019-03-13T00:02:58.888Z,84.00
2019-03-13T00:05:27.282Z,84.10
2019-03-13T00:07:55.661Z,84.50
2019-03-13T00:10:24.066Z,84.10
2019-03-13T00:12:52.468Z,84.10
2019-03-13T00:15:20.870Z,84.30
2019-03-13T00:17:49.273Z,84.50
2019-03-13T00:20:17.646Z,84.60
2019-03-13T00:22:46.021Z,84.70
2019-03-13T00:25:14.400Z,84.70
2019-03-13T00:27:42.751Z,84.70
2019-03-13T00:30:12.268Z,84.90
2019-03-13T00:32:40.688Z,85.00
2019-03-13T00:35:10.288Z,85.10
2019-03-13T00:37:38.595Z,85.30
2019-03-13T00:40:10.207Z,85.70
2019-03-13T00:42:38.563Z,85.80
2019-03-13T00:45:09.575Z,86.10
2019-03-13T00:47:37.922Z,86.30
2019-03-13T00:50:09.528Z,86.70
2019-03-13T00:52:37.904Z,87.00
2019-03-13T00:55:07.329Z,87.40
2019-03-13T00:57:35.685Z,87.40
2019-03-13T01:00:42.865Z,87.40
2019-03-13T01:03:13.864Z,87.50
2019-03-13T01:05:43.888Z,87.60
2019-03-13T01:08:12.408Z,87.80
2019-03-13T01:10:40.795Z,87.50
2019-03-13T01:13:09.156Z,87.40
2019-03-13T01:15:37.571Z,87.70
2019-03-13T01:18:06.096Z,87.90
2019-03-13T01:20:34.420Z,88.30
2019-03-13T01:23:03.122Z,88.60
2019-03-13T01:25:31.509Z,88.70
2019-03-13T01:27:59.891Z,88.90
2019-03-13T01:30:29.961Z,89.10
2019-03-13T01:32:59.972Z,89.10
2019-03-13T01:35:30.046Z,89.10
2019-03-13T01:37:58.428Z,89.20
2019-03-13T01:40:26.782Z,88.90
2019-03-13T01:42:55.176Z,88.50
2019-03-13T01:45:23.565Z,88.20
2019-03-13T01:47:51.955Z,87.70
2019-03-13T01:50:20.364Z,87.40
2019-03-13T01:52:48.909Z,87.20
2019-03-13T01:55:17.304Z,86.70
2019-03-13T01:57:45.693Z,86.40
2019-03-13T02:00:15.915Z,86.00
2019-03-13T02:02:44.300Z,86.00
2019-03-13T02:05:12.675Z,85.90
2019-03-13T02:07:41.064Z,85.70
2019-03-13T02:10:11.155Z,85.80
2019-03-13T02:12:39.467Z,85.80
2019-03-13T02:15:11.054Z,85.80
2019-03-13T02:17:39.411Z,85.70
2019-03-13T02:20:10.126Z,85.70
2019-03-13T02:22:38.529Z,85.70
2019-03-13T02:25:09.127Z,85.60
2019-03-13T02:27:37.504Z,85.50
2019-03-13T02:30:13.371Z,86.00
2019-03-13T02:32:41.743Z,86.10
2019-03-13T02:35:10.098Z,86.20
2019-03-13T02:37:38.813Z,86.20
2019-03-13T02:40:10.652Z,86.30
2019-03-13T02:42:39.121Z,86.50
2019-03-13T02:45:12.861Z,86.40
2019-03-13T02:47:41.412Z,86.30
2019-03-13T02:50:15.378Z,85.90
2019-03-13T02:52:44.955Z,85.50
2019-03-13T02:55:13.655Z,85.50
2019-03-13T02:57:42.033Z,85.70
2019-03-13T03:00:18.365Z,84.70
2019-03-13T03:02:48.458Z,84.30
2019-03-13T03:05:16.848Z,84.50
2019-03-13T03:07:45.239Z,83.30
2019-03-13T03:10:13.764Z,83.10
2019-03-13T03:12:42.199Z,82.70
2019-03-13T03:15:16.036Z,82.10
2019-03-13T03:17:44.430Z,81.90
2019-03-13T03:20:15.190Z,81.60
2019-03-13T03:22:43.582Z,81.40
2019-03-13T03:25:14.174Z,81.10
2019-03-13T03:27:42.805Z,81.20
2019-03-13T03:30:20.250Z,81.40
2019-03-13T03:32:48.906Z,81.30
2019-03-13T03:35:17.462Z,80.90
2019-03-13T03:37:45.805Z,80.80
2019-03-13T03:40:22.385Z,80.60
2019-03-13T03:42:48.557Z,80.40
2019-03-13T03:45:16.946Z,80.00
2019-03-13T03:47:45.320Z,79.70
2019-03-13T03:50:16.191Z,79.80
2019-03-13T03:52:44.595Z,79.80
2019-03-13T03:55:14.126Z,79.70
2019-03-13T03:57:42.487Z,79.70
2019-03-13T04:00:15.873Z,80.00
2019-03-13T04:02:43.534Z,80.00
2019-03-13T04:05:11.921Z,80.10
2019-03-13T04:07:40.476Z,79.60
2019-03-13T04:10:15.790Z,79.50
2019-03-13T04:12:44.198Z,79.40
2019-03-13T04:15:13.802Z,79.50
2019-03-13T04:17:42.151Z,79.20
2019-03-13T04:20:12.759Z,79.20
2019-03-13T04:22:41.089Z,78.90
2019-03-13T04:25:27.288Z,78.60
2019-03-13T04:27:55.833Z,78.60
2019-03-13T04:30:24.279Z,78.90
2019-03-13T04:32:52.861Z,78.00
2019-03-13T04:35:21.210Z,78.00
2019-03-13T04:37:49.593Z,77.90
2019-03-13T04:40:18.120Z,78.00
2019-03-13T04:42:46.485Z,78.00
2019-03-13T04:45:14.834Z,77.70
2019-03-13T04:47:43.190Z,77.50
2019-03-13T04:50:13.328Z,77.20
2019-03-13T04:52:41.706Z,77.10
2019-03-13T04:55:14.407Z,76.90
2019-03-13T04:57:42.770Z,77.10
2019-03-13T05:00:13.919Z,77.30
2019-03-13T05:02:42.311Z,76.70
2019-03-13T05:05:29.193Z,76.20
2019-03-13T05:07:57.616Z,76.30
2019-03-13T05:10:25.962Z,76.00
2019-03-13T05:12:54.379Z,75.70
2019-03-13T05:15:22.862Z,75.60
2019-03-13T05:17:51.247Z,75.00
2019-03-13T05:20:19.608Z,74.30
2019-03-13T05:22:49.027Z,74.00
2019-03-13T05:25:19.168Z,73.60
2019-03-13T05:27:47.476Z,73.20
2019-03-13T05:30:15.847Z,72.50
2019-03-13T05:32:45.294Z,72.20
2019-03-13T05:35:13.678Z,72.00
2019-03-13T05:37:42.464Z,72.70
2019-03-13T05:40:11.961Z,71.60
2019-03-13T05:42:40.313Z,71.00
2019-03-13T05:45:09.466Z,70.40
2019-03-13T05:47:37.871Z,70.00
2019-03-13T05:50:09.070Z,69.00
2019-03-13T05:52:37.860Z,68.60
2019-03-13T05:55:06.712Z,68.30
2019-03-13T05:57:35.102Z,68.00
2019-03-13T06:00:06.051Z,67.30
2019-03-13T06:02:34.712Z,66.60
2019-03-13T06:05:03.311Z,66.60
2019-03-13T06:07:31.820Z,66.30
2019-03-13T06:10:00.494Z,66.00
2019-03-13T06:12:29.818Z,65.90
2019-03-13T06:14:58.509Z,66.20
2019-03-13T06:17:26.871Z,65.80
2019-03-13T06:19:55.330Z,65.60
2019-03-13T06:22:23.735Z,65.60
2019-03-13T06:24:52.113Z,65.90
2019-03-13T06:27:20.752Z,65.70
2019-03-13T06:29:49.154Z,66.10
2019-03-13T06:32:17.534Z,66.10
2019-03-13T06:34:45.912Z,66.40
2019-03-13T06:37:14.334Z,66.30
2019-03-13T06:39:42.717Z,65.50
2019-03-13T06:42:11.070Z,66.40
2019-03-13T06:44:39.418Z,65.20
2019-03-13T06:47:07.756Z,65.00
2019-03-13T06:49:36.198Z,63.90
2019-03-13T06:52:04.579Z,67.90
2019-03-13T06:54:32.949Z,63.40
2019-03-13T06:57:01.309Z,62.70
2019-03-13T06:59:31.330Z,62.40
2019-03-13T07:02:07.156Z,62.90
2019-03-13T07:04:53.610Z,62.80
2019-03-13T07:07:39.711Z,62.70
2019-03-13T07:10:10.776Z,62.40
2019-03-13T07:12:40.809Z,62.10
2019-03-13T07:15:13.707Z,61.90
2019-03-13T07:17:48.327Z,61.80
2019-03-13T07:20:18.354Z,61.80
2019-03-13T07:23:00.420Z,62.00
2019-03-13T07:25:36.108Z,62.10
2019-03-13T07:28:19.853Z,61.50
2019-03-13T07:30:49.197Z,61.30
2019-03-13T07:33:27.906Z,60.90
2019-03-13T07:36:14.196Z,60.30
2019-03-13T07:38:44.254Z,59.20
2019-03-13T07:41:26.080Z,58.60
2019-03-13T07:43:58.832Z,58.20
2019-03-13T07:46:28.890Z,57.40
2019-03-13T07:48:58.888Z,56.90
2019-03-13T07:51:34.527Z,57.20
2019-03-13T07:54:40.218Z,57.30
2019-03-13T07:57:26.815Z,57.10
2019-03-13T08:00:02.766Z,57.20
2019-03-13T08:02:35.520Z,56.80
2019-03-13T08:05:22.354Z,57.10
2019-03-13T08:07:58.261Z,56.00
2019-03-13T08:10:28.302Z,55.70
2019-03-13T08:13:12.999Z,54.60
2019-03-13T08:15:43.050Z,54.50
2019-03-13T08:18:29.092Z,54.90
2019-03-13T08:20:59.107Z,54.80
2019-03-13T08:23:32.100Z,54.60
2019-03-13T08:26:20.164Z,54.80
2019-03-13T08:28:51.734Z,54.60
2019-03-13T08:31:24.671Z,55.00
2019-03-13T08:33:55.001Z,55.50
2019-03-13T08:36:33.710Z,56.30
2019-03-13T08:39:04.357Z,56.20
2019-03-13T08:41:40.325Z,56.60
2019-03-13T08:44:19.197Z,56.60
2019-03-13T08:47:06.793Z,56.20
2019-03-13T08:52:35.392Z,55.90
2019-03-13T08:55:11.556Z,56.20
2019-03-13T08:57:50.624Z,55.90
2019-03-13T09:00:29.707Z,55.80
2019-03-13T09:03:02.412Z,56.30
2019-03-13T09:05:48.875Z,56.20
2019-03-13T09:08:30.625Z,56.50
2019-03-13T09:11:06.551Z,55.90
2019-03-13T09:13:42.333Z,55.80
2019-03-13T09:16:21.051Z,56.00
2019-03-13T09:18:59.748Z,55.30
2019-03-13T09:21:33.591Z,55.30
2019-03-13T09:24:12.631Z,54.70
2019-03-13T09:26:57.587Z,54.70
2019-03-13T09:29:36.330Z,54.70
2019-03-13T09:32:24.516Z,54.50
2019-03-13T09:34:57.208Z,54.80
2019-03-13T09:37:30.029Z,54.90
2019-03-13T09:40:05.683Z,54.90
2019-03-13T09:42:53.806Z,54.70
2019-03-13T09:45:26.355Z,54.90
2019-03-13T09:47:59.172Z,55.00
2019-03-13T09:50:29.152Z,54.70
2019-03-13T09:53:17.040Z,54.80
2019-03-13T09:55:49.646Z,54.60
2019-03-13T09:58:22.590Z,54.80
2019-03-13T10:00:52.612Z,54.50
2019-03-13T10:03:25.506Z,54.60
2019-03-13T10:05:55.554Z,54.70
2019-03-13T10:08:28.599Z,53.80
2019-03-13T10:10:58.544Z,54.10
2019-03-13T10:13:34.620Z,53.30
2019-03-13T10:16:07.478Z,53.10
2019-03-13T10:18:40.297Z,52.20
2019-03-13T10:21:10.315Z,52.80
2019-03-13T10:23:56.918Z,52.70
2019-03-13T10:26:44.995Z,52.10
2019-03-13T10:29:15.027Z,51.70
2019-03-13T10:31:46.931Z,51.40
2019-03-13T10:34:33.341Z,51.50
2019-03-13T10:37:03.379Z,51.30
2019-03-13T10:39:33.409Z,50.60
2019-03-13T10:42:03.459Z,50.20
2019-03-13T10:44:42.378Z,50.20
2019-03-13T10:47:12.400Z,50.80
2019-03-13T10:49:42.435Z,50.60
2019-03-13T10:52:17.805Z,51.00
2019-03-13T10:54:53.528Z,51.00
2019-03-13T10:57:35.548Z,50.80
2019-03-13T11:00:17.596Z,50.90
2019-03-13T11:02:59.307Z,50.80
2019-03-13T11:05:45.279Z,50.60
2019-03-13T11:08:23.930Z,50.50
2019-03-13T11:10:56.557Z,50.50
2019-03-13T11:13:42.798Z,50.80
2019-03-13T11:16:28.924Z,50.40
2019-03-13T11:19:07.469Z,50.70
2019-03-13T11:21:53.897Z,50.50
2019-03-13T11:24:23.888Z,50.30
2019-03-13T11:26:53.899Z,49.50
2019-03-13T11:29:29.778Z,48.90
2019-03-13T11:32:14.657Z,48.70
2019-03-13T11:34:44.704Z,48.80
2019-03-13T11:37:26.491Z,48.30
2019-03-13T11:40:08.719Z,48.70
2019-03-13T11:42:50.702Z,49.20
2019-03-13T11:45:37.191Z,49.30
2019-03-13T11:48:12.896Z,49.40
2019-03-13T11:50:42.934Z,49.40
2019-03-13T11:53:19.010Z,49.90
2019-03-13T11:55:55.155Z,50.10
2019-03-13T11:58:28.077Z,50.20
2019-03-13T12:01:04.213Z,50.60
2019-03-13T12:03:45.974Z,50.60
2019-03-13T12:06:34.419Z,50.80
2019-03-13T12:09:21.673Z,51.30
2019-03-13T12:12:03.925Z,51.50
2019-03-13T12:14:48.754Z,51.90
2019-03-13T12:17:27.811Z,51.80
2019-03-13T12:20:00.482Z,51.90
2019-03-13T12:22:42.256Z,52.00
2019-03-13T12:25:16.326Z,52.30
2019-03-13T12:27:46.365Z,52.80
2019-03-13T12:30:32.275Z,52.80
2019-03-13T12:33:02.335Z,53.30
2019-03-13T12:35:35.504Z,53.70
2019-03-13T12:38:05.457Z,53.60
2019-03-13T12:40:47.483Z,53.80
2019-03-13T12:43:35.650Z,54.10
2019-03-13T12:46:17.848Z,54.50
2019-03-13T12:48:47.900Z,54.70
2019-03-13T12:51:20.516Z,55.00
2019-03-13T12:54:02.600Z,54.60
2019-03-13T12:56:41.658Z,54.60
2019-03-13T12:59:23.614Z,54.90
2019-03-13T13:01:53.600Z,55.00
2019-03-13T13:04:35.338Z,55.20
2019-03-13T13:07:05.259Z,55.50
2019-03-13T13:09:51.655Z,55.70
2019-03-13T13:12:24.527Z,55.80
2019-03-13T13:14:57.402Z,56.10
2019-03-13T13:17:42.480Z,56.40
2019-03-13T13:20:13.605Z,56.90
2019-03-13T13:22:41.959Z,57.10
2019-03-13T13:25:10.714Z,57.30
2019-03-13T13:27:39.149Z,57.10
2019-03-13T13:30:13.989Z,57.50
2019-03-13T13:32:42.427Z,57.50
2019-03-13T13:35:10.788Z,57.60
2019-03-13T13:37:39.134Z,57.60
2019-03-13T13:40:12.847Z,57.50
2019-03-13T13:42:41.206Z,57.80
2019-03-13T13:45:33.129Z,57.80
2019-03-13T13:48:00.536Z,57.90
2019-03-13T13:50:28.819Z,58.10
2019-03-13T13:52:57.331Z,58.40
2019-03-13T13:55:45.091Z,58.70
2019-03-13T13:58:13.411Z,59.00
2019-03-13T14:00:41.799Z,59.20
2019-03-13T14:03:10.180Z,59.20
2019-03-13T14:05:40.955Z,59.10
2019-03-13T14:08:08.570Z,59.50
2019-03-13T14:10:36.927Z,59.00
2019-03-13T14:13:05.279Z,59.20
2019-03-13T14:15:33.662Z,59.40
2019-03-13T14:18:02.047Z,59.70
2019-03-13T14:20:30.471Z,60.70
2019-03-13T14:22:58.853Z,60.90
2019-03-13T14:25:27.210Z,62.00
2019-03-13T14:27:55.725Z,62.50
2019-03-13T14:30:24.311Z,62.50
2019-03-13T14:32:52.678Z,62.70
2019-03-13T14:35:21.067Z,63.40
2019-03-13T14:37:49.889Z,63.10
2019-03-13T14:40:19.571Z,63.60
2019-03-13T14:42:47.919Z,62.80
2019-03-13T14:45:17.915Z,62.80
2019-03-13T14:47:47.132Z,63.60
2019-03-13T14:50:18.231Z,61.40
2019-03-13T14:52:46.592Z,61.30
2019-03-13T14:55:16.497Z,61.10
2019-03-13T14:57:45.197Z,61.50
2019-03-13T15:00:18.481Z,62.20
2019-03-13T15:02:46.860Z,62.50
2019-03-13T15:05:15.634Z,64.10
2019-03-13T15:07:43.972Z,66.10
2019-03-13T15:10:17.588Z,67.10
2019-03-13T15:12:46.007Z,67.90
2019-03-13T15:15:16.791Z,68.20
2019-03-13T15:17:45.179Z,68.80
2019-03-13T15:20:19.516Z,69.30
2019-03-13T15:22:47.880Z,69.60
2019-03-13T15:25:16.284Z,69.80
2019-03-13T15:27:45.182Z,69.80
2019-03-13T15:30:19.395Z,70.30
2019-03-13T15:32:47.780Z,70.70
2019-03-13T15:35:16.189Z,71.10
2019-03-13T15:37:44.549Z,72.40
2019-03-13T15:40:17.440Z,73.10
2019-03-13T15:42:46.205Z,74.00
2019-03-13T15:45:32.565Z,74.30
2019-03-13T15:48:00.980Z,74.40
2019-03-13T15:50:29.368Z,74.80
2019-03-13T15:52:57.722Z,75.60
2019-03-13T15:55:26.104Z,75.90
2019-03-13T15:57:54.496Z,76.30
2019-03-13T16:00:27.045Z,76.70
2019-03-13T16:02:56.082Z,77.00
2019-03-13T16:05:24.653Z,77.30
2019-03-13T16:07:53.027Z,77.30
2019-03-13T16:10:21.659Z,78.00
2019-03-13T16:12:50.881Z,78.00
2019-03-13T16:15:29.234Z,77.90
2019-03-13T16:17:57.535Z,77.80
2019-03-13T16:20:25.844Z,77.80
2019-03-13T16:22:55.896Z,77.80
2019-03-13T16:25:24.296Z,78.30
2019-03-13T16:27:52.668Z,78.60
2019-03-13T16:30:23.748Z,78.80
2019-03-13T16:32:52.094Z,78.80
2019-03-13T16:35:20.412Z,78.40
2019-03-13T16:37:48.821Z,78.40
2019-03-13T16:40:19.740Z,78.40
2019-03-13T16:42:48.039Z,78.40
2019-03-13T16:45:18.507Z,78.60
2019-03-13T16:47:46.868Z,78.40
2019-03-13T16:50:18.144Z,78.70
2019-03-13T16:52:48.360Z,78.70
2019-03-13T16:55:18.988Z,78.80
2019-03-13T16:57:47.339Z,78.80
2019-03-13T17:00:21.545Z,78.90
2019-03-13T17:02:49.902Z,78.80
2019-03-13T17:05:18.619Z,78.70
2019-03-13T17:07:49.612Z,78.40
2019-03-13T17:10:19.502Z,78.10
2019-03-13T17:12:47.871Z,78.10
2019-03-13T17:15:21.713Z,78.10
2019-03-13T17:17:50.071Z,77.70
2019-03-13T17:20:20.960Z,77.30
2019-03-13T17:22:49.366Z,77.10
2019-03-13T17:25:19.800Z,76.60
2019-03-13T17:27:48.825Z,76.10
2019-03-13T17:30:28.614Z,76.20
2019-03-13T17:32:56.894Z,76.50
2019-03-13T17:35:25.287Z,76.40
2019-03-13T17:37:53.678Z,76.70
2019-03-13T17:40:27.377Z,77.00
2019-03-13T17:42:57.392Z,78.00
2019-03-13T17:45:25.779Z,77.40
2019-03-13T17:47:54.328Z,77.60
2019-03-13T17:50:23.811Z,77.80
2019-03-13T17:52:52.198Z,78.00
2019-03-13T17:55:23.282Z,78.30
2019-03-13T17:57:51.770Z,78.80
2019-03-13T18:00:23.637Z,79.20
2019-03-13T18:02:52.422Z,79.40
2019-03-13T18:05:20.972Z,79.40
2019-03-13T18:07:49.624Z,79.50
2019-03-13T18:10:21.853Z,79.60
2019-03-13T18:12:50.840Z,79.30
2019-03-13T18:15:19.542Z,79.50
2019-03-13T18:17:47.984Z,79.50
2019-03-13T18:20:18.697Z,79.40
2019-03-13T18:22:47.440Z,79.40
2019-03-13T18:25:18.421Z,79.20
2019-03-13T18:27:47.577Z,79.00
2019-03-13T18:30:29.945Z,78.70
2019-03-13T18:32:58.779Z,79.40
2019-03-13T18:35:27.403Z,78.60
2019-03-13T18:37:55.808Z,78.40
2019-03-13T18:40:24.913Z,78.30
2019-03-13T18:42:53.363Z,78.20
2019-03-13T18:45:29.364Z,78.20
2019-03-13T18:47:58.631Z,78.40
2019-03-13T18:50:27.100Z,78.30
2019-03-13T18:52:55.611Z,78.50
2019-03-13T18:55:29.448Z,78.60
2019-03-13T18:57:57.960Z,78.50
2019-03-13T19:00:31.635Z,78.30
2019-03-13T19:03:00.124Z,78.30
2019-03-13T19:05:33.676Z,78.30
2019-03-13T19:08:01.459Z,78.20
2019-03-13T19:10:33.537Z,78.00
2019-03-13T19:13:02.019Z,77.80
2019-03-13T19:15:30.435Z,77.40
2019-03-13T19:18:00.744Z,77.60
2019-03-13T19:20:29.917Z,77.90
2019-03-13T19:22:58.444Z,78.10
2019-03-13T19:25:26.872Z,78.40
2019-03-13T19:27:55.491Z,78.90
2019-03-13T19:30:26.680Z,79.20
2019-03-13T19:32:55.243Z,79.40
2019-03-13T19:35:23.638Z,79.60
2019-03-13T19:37:52.282Z,79.80
2019-03-13T19:40:21.896Z,80.10
2019-03-13T19:42:50.378Z,79.80
2019-03-13T19:45:34.418Z,79.60
2019-03-13T19:48:02.890Z,79.50
2019-03-13T19:50:31.270Z,79.50
2019-03-13T19:52:59.698Z,79.70
2019-03-13T19:55:28.109Z,79.20
2019-03-13T19:57:56.767Z,79.30
2019-03-13T20:00:26.124Z,79.00
2019-03-13T20:03:06.095Z,78.70
2019-03-13T20:05:44.782Z,78.80
2019-03-13T20:08:04.690Z,78.70
2019-03-13T20:10:33.111Z,78.60
2019-03-13T20:13:01.641Z,78.60
2019-03-13T20:15:31.877Z,78.30
2019-03-13T20:18:00.335Z,78.10
2019-03-13T20:20:28.810Z,77.90
2019-03-13T20:23:18.318Z,77.80
2019-03-13T20:25:46.831Z,77.60
2019-03-13T20:28:15.164Z,77.00
2019-03-13T20:30:43.712Z,76.50
2019-03-13T20:33:12.095Z,76.00
2019-03-13T20:35:40.479Z,75.70
2019-03-13T20:38:08.875Z,75.80
2019-03-13T20:40:37.343Z,75.30
2019-03-13T20:43:05.724Z,75.10
2019-03-13T20:45:34.092Z,74.90
2019-03-13T20:48:02.497Z,75.10
2019-03-13T20:50:37.246Z,75.10
2019-03-13T20:53:00.909Z,75.00
2019-03-13T20:55:29.326Z,75.10
2019-03-13T20:57:57.688Z,75.10
2019-03-13T21:00:26.821Z,74.90
2019-03-13T21:02:56.179Z,74.70
2019-03-13T21:05:24.877Z,74.80
2019-03-13T21:07:54.087Z,74.70
2019-03-13T21:10:24.286Z,74.80
2019-03-13T21:12:52.642Z,74.90
2019-03-13T21:15:26.409Z,74.90
2019-03-13T21:17:55.399Z,74.70
2019-03-13T21:20:23.833Z,74.80
2019-03-13T21:22:52.208Z,74.60
2019-03-13T21:25:22.072Z,74.80
2019-03-13T21:27:50.475Z,75.00
2019-03-13T21:30:27.938Z,74.60
2019-03-13T21:32:56.984Z,74.20
2019-03-13T21:35:25.331Z,73.80
2019-03-13T21:37:54.144Z,73.40
2019-03-13T21:40:24.974Z,73.30
2019-03-13T21:42:54.906Z,73.10
2019-03-13T21:45:23.718Z,73.00
2019-03-13T21:47:52.430Z,73.00
2019-03-13T21:50:20.753Z,73.00
2019-03-13T21:52:49.160Z,72.80
2019-03-13T21:55:18.486Z,72.70
2019-03-13T21:57:47.018Z,72.90
2019-03-13T22:00:23.843Z,73.00
2019-03-13T22:02:52.817Z,73.00
2019-03-13T22:05:26.360Z,73.30
2019-03-13T22:07:51.548Z,72.10
2019-03-13T22:10:20.375Z,72.20
2019-03-13T22:12:48.737Z,71.80
2019-03-13T22:15:21.256Z,71.90
2019-03-13T22:17:49.643Z,71.90
2019-03-13T22:20:19.182Z,71.90
2019-03-13T22:22:47.613Z,72.10
2019-03-13T22:25:17.863Z,72.80
2019-03-13T22:27:46.362Z,72.10
2019-03-13T22:30:17.602Z,72.10
2019-03-13T22:32:45.900Z,72.30
2019-03-13T22:35:14.295Z,72.00
2019-03-13T22:37:42.679Z,71.90
2019-03-13T22:40:14.922Z,71.90
2019-03-13T22:42:43.313Z,72.10
2019-03-13T22:45:16.205Z,72.40
2019-03-13T22:47:46.181Z,72.60
2019-03-13T22:50:24.873Z,73.10
2019-03-13T22:52:53.213Z,73.10
2019-03-13T22:55:21.619Z,73.20
2019-03-13T22:57:50.065Z,73.10
2019-03-13T23:00:29.455Z,73.00
2019-03-13T23:02:57.775Z,73.10
2019-03-13T23:05:26.106Z,73.30
2019-03-13T23:07:54.476Z,73.40
2019-03-13T23:10:35.457Z,73.40
2019-03-13T23:13:03.842Z,73.40
2019-03-13T23:15:33.087Z,73.30
2019-03-13T23:18:01.584Z,73.10
2019-03-13T23:20:29.947Z,73.10
2019-03-13T23:22:58.332Z,73.00
2019-03-13T23:25:26.715Z,72.90
2019-03-13T23:27:55.026Z,73.10
2019-03-13T23:30:23.410Z,73.20
2019-03-13T23:32:52.068Z,73.30
2019-03-13T23:35:20.362Z,73.20
2019-03-13T23:37:48.711Z,73.20
2019-03-13T23:40:17.102Z,73.10
2019-03-13T23:42:45.459Z,72.80
2019-03-13T23:45:13.849Z,73.10
2019-03-13T23:47:42.285Z,74.10
2019-03-13T23:50:12.965Z,73.10
2019-03-13T23:52:41.348Z,73.30
2019-03-13T23:55:09.814Z,74.20
2019-03-13T23:57:38.168Z,73.50
